Heide-Busum Airport


Codes: EDXB/HEI
Name: Heide-Busum Airport
City: Busum
Country: Germany
Elevation: 7 ft.
Website:
Wikipedia:

Photos at Heide-Busum Airport


   Photos courtesy of SpottingLog. You can add your own sightings and photos by signing up for a free trial today.



No photos found.

Weather at Heide-Busum Airport


Time (UTC)DescriptionTempratureWindCloud coverageVisibilityPressureHumidity
18-Apr-2024 00:00Overcast Clouds4°C7 mph, NE85%10000m1014hPa80%
18-Apr-2024 03:00Broken Clouds3°C4 mph, NE57%10000m1014hPa80%
18-Apr-2024 06:00Scattered Clouds4°C0 mph, NW29%10000m1015hPa74%
18-Apr-2024 09:00Clear Sky9°C9 mph, W0%10000m1017hPa68%
18-Apr-2024 12:00Few Clouds9°C16 mph, NW12%10000m1017hPa68%
18-Apr-2024 15:00Scattered Clouds8°C16 mph, W28%10000m1016hPa65%
18-Apr-2024 18:00Broken Clouds7°C16 mph, W56%10000m1015hPa69%
18-Apr-2024 21:00Overcast Clouds7°C16 mph, W100%10000m1014hPa70%
19-Apr-2024 00:00Light Rain6°C18 mph, SW100%10000m1010hPa81%
19-Apr-2024 03:00Moderate Rain5°C27 mph, N100%0m1004hPa97%
19-Apr-2024 06:00Light Rain8°C18 mph, NW93%10000m1002hPa84%
19-Apr-2024 09:00Light Rain9°C22 mph, NW81%10000m1001hPa76%
19-Apr-2024 12:00Light Rain8°C20 mph, W65%10000m1001hPa71%
19-Apr-2024 15:00Light Rain8°C11 mph, W100%10000m999hPa78%
19-Apr-2024 18:00Light Rain7°C22 mph, N96%10000m1003hPa86%
19-Apr-2024 21:00Light Rain5°C22 mph, N99%10000m1010hPa86%
20-Apr-2024 00:00Overcast Clouds4°C18 mph, N99%10000m1013hPa82%
20-Apr-2024 03:00Scattered Clouds3°C16 mph, N44%10000m1016hPa83%
20-Apr-2024 06:00Scattered Clouds4°C13 mph, N30%10000m1018hPa75%
20-Apr-2024 09:00Few Clouds7°C9 mph, N21%10000m1020hPa56%
20-Apr-2024 12:00Light Rain7°C4 mph, NW56%10000m1021hPa71%
20-Apr-2024 15:00Light Rain7°C9 mph, NW92%10000m1022hPa72%
20-Apr-2024 18:00Light Rain6°C7 mph, N82%10000m1023hPa76%
20-Apr-2024 21:00Broken Clouds4°C4 mph, NE70%10000m1024hPa87%
21-Apr-2024 00:00Broken Clouds4°C7 mph, NE82%10000m1025hPa88%
21-Apr-2024 03:00Overcast Clouds4°C9 mph, NE95%10000m1026hPa90%
21-Apr-2024 06:00Broken Clouds4°C9 mph, NE62%10000m1027hPa77%
21-Apr-2024 09:00Light Rain8°C11 mph, NE1%10000m1028hPa59%
21-Apr-2024 12:00Light Rain9°C16 mph, NE29%10000m1029hPa52%
21-Apr-2024 15:00Overcast Clouds9°C16 mph, NE100%10000m1029hPa51%
21-Apr-2024 18:00Overcast Clouds6°C13 mph, NE100%10000m1030hPa67%
21-Apr-2024 21:00Few Clouds3°C9 mph, NE22%10000m1031hPa86%
22-Apr-2024 00:00Scattered Clouds2°C7 mph, NE29%10000m1031hPa87%
22-Apr-2024 03:00Scattered Clouds2°C9 mph, NE37%10000m1031hPa84%
22-Apr-2024 06:00Few Clouds3°C13 mph, NE23%10000m1031hPa72%
22-Apr-2024 09:00Clear Sky6°C18 mph, NE6%10000m1030hPa54%
22-Apr-2024 12:00Clear Sky8°C13 mph, NE8%10000m1029hPa47%
22-Apr-2024 15:00Clear Sky8°C13 mph, NE4%10000m1028hPa50%
22-Apr-2024 18:00Clear Sky5°C9 mph, E2%10000m1028hPa66%
22-Apr-2024 21:00Clear Sky3°C7 mph, NE3%10000m1028hPa75%